Time;durP1;ratioP1;P1;durP2;ratioP2;P2;SDS_P1;SDS_P2;PMS_P1;PMS_P2;Temp;Humidity;BMP_temperature;BMP_pressure;BME280_temperature;BME280_humidity;BME280_pressure;Samples;Min_cycle;Max_cycle;Signal;HPM_P1;HPM_P2
2023/05/04 00:00:06;;;;;;;2.90;2.70;;;;;;;20.50;53.55;98033.41;4977759;28;20310;-25
2023/05/04 00:02:33;;;;;;;2.77;2.57;;;;;;;20.49;52.95;98042.72;4970561;28;20211;-27
2023/05/04 00:05:00;;;;;;;2.93;2.73;;;;;;;20.49;53.54;98040.19;4976718;28;20239;-25
2023/05/04 00:07:27;;;;;;;2.73;2.53;;;;;;;20.49;53.27;98039.31;4964770;28;20707;-26
2023/05/04 00:09:53;;;;;;;2.93;2.73;;;;;;;20.49;53.47;98039.31;4971711;28;20219;-27
2023/05/04 00:12:20;;;;;;;2.73;2.53;;;;;;;20.49;53.71;98034.22;4972855;28;20208;-25
2023/05/04 00:14:46;;;;;;;2.80;2.60;;;;;;;20.50;52.60;98041.06;4972446;28;20265;-25
2023/05/04 00:17:13;;;;;;;2.90;2.70;;;;;;;20.49;53.31;98037.63;4975220;28;20287;-28
2023/05/04 00:19:41;;;;;;;2.80;2.60;;;;;;;20.49;53.47;98035.06;4964798;28;20661;-25
2023/05/04 00:22:07;;;;;;;2.77;2.57;;;;;;;20.49;53.43;98037.63;4978315;28;20209;-28
2023/05/04 00:24:34;;;;;;;2.37;2.23;;;;;;;20.49;53.26;98042.72;4976316;28;20600;-25
2023/05/04 00:27:01;;;;;;;2.30;2.20;;;;;;;20.49;53.35;98047.84;4972449;28;20203;-25
2023/05/04 00:29:28;;;;;;;2.77;2.57;;;;;;;20.49;53.53;98035.06;4971271;28;20208;-27
2023/05/04 00:31:55;;;;;;;2.70;2.50;;;;;;;20.49;53.26;98034.22;4967543;28;20255;-25
2023/05/04 00:34:22;;;;;;;2.67;2.47;;;;;;;20.50;53.03;98038.50;4982921;28;20209;-30
2023/05/04 00:36:49;;;;;;;2.70;2.50;;;;;;;20.49;53.26;98029.97;4971821;28;20231;-25
2023/05/04 00:39:15;;;;;;;2.53;2.33;;;;;;;20.50;53.86;98031.72;4968582;28;20725;-25
2023/05/04 00:41:43;;;;;;;2.73;2.53;;;;;;;20.50;53.10;98029.19;4971398;28;20203;-25
2023/05/04 00:44:10;;;;;;;2.90;2.70;;;;;;;20.50;53.34;98025.75;4972527;28;20200;-25
2023/05/04 00:46:36;;;;;;;2.50;2.30;;;;;;;20.50;53.33;98030.84;4976259;28;20265;-27
2023/05/04 00:49:03;;;;;;;2.80;2.60;;;;;;;20.50;53.42;98026.63;4968871;28;20203;-25
2023/05/04 00:51:30;;;;;;;3.73;2.23;;;;;;;20.50;53.56;98016.41;4952581;28;20214;-25
2023/05/04 00:53:57;;;;;;;2.60;2.40;;;;;;;20.49;53.45;98014.63;4966109;28;20206;-25
2023/05/04 00:56:23;;;;;;;2.87;2.67;;;;;;;20.50;53.52;98012.97;4970998;28;20222;-28
2023/05/04 00:58:53;;;;;;;2.50;2.30;;;;;;;20.50;53.61;98018.97;4968895;28;20207;-25
2023/05/04 01:01:21;;;;;;;3.30;3.00;;;;;;;20.51;53.49;98012.16;4964040;28;20254;-25
2023/05/04 01:03:48;;;;;;;2.90;2.60;;;;;;;20.48;53.50;98012.03;4960514;28;20315;-28
2023/05/04 01:06:22;;;;;;;2.60;2.40;;;;;;;20.50;53.59;98016.41;4971317;28;20273;-27
2023/05/04 01:09:00;;;;;;;2.93;2.73;;;;;;;20.50;53.52;98023.19;4972261;28;20207;-25
2023/05/04 01:11:36;;;;;;;2.70;2.50;;;;;;;20.50;53.69;98018.06;4977392;28;20253;-25
2023/05/04 01:14:02;;;;;;;2.90;2.70;;;;;;;20.50;53.50;98020.63;4966040;28;20211;-25
2023/05/04 01:16:29;;;;;;;2.90;2.70;;;;;;;20.50;53.19;98021.50;4965473;28;20269;-31
2023/05/04 01:18:55;;;;;;;3.30;2.80;;;;;;;20.50;53.33;98015.53;4976646;28;20208;-25
2023/05/04 01:21:22;;;;;;;3.60;3.30;;;;;;;20.49;53.52;98022.31;4969232;28;20196;-28
2023/05/04 01:23:49;;;;;;;2.67;2.47;;;;;;;20.37;53.38;97997.97;4974047;28;20211;-25
2023/05/04 01:26:23;;;;;;;2.90;2.70;;;;;;;20.48;53.45;98023.13;4981319;28;20307;-29
2023/05/04 01:28:59;;;;;;;2.77;2.57;;;;;;;20.48;53.53;98025.69;4976353;28;20208;-26
2023/05/04 01:31:26;;;;;;;3.40;3.10;;;;;;;20.49;53.60;98017.19;4980030;28;20582;-25
2023/05/04 01:33:53;;;;;;;3.10;2.73;;;;;;;20.49;53.53;98016.34;4955362;28;20885;-27
2023/05/04 01:36:20;;;;;;;3.17;2.93;;;;;;;20.47;53.40;98017.94;4976713;28;20310;-25
2023/05/04 01:38:47;;;;;;;2.97;2.77;;;;;;;20.47;53.55;98021.38;4955410;28;20214;-25
2023/05/04 01:41:14;;;;;;;3.03;2.83;;;;;;;20.47;53.76;98013.72;4978144;28;20583;-25
2023/05/04 01:43:41;;;;;;;2.73;2.53;;;;;;;20.48;53.36;98019.69;4984903;28;20578;-25
2023/05/04 01:46:07;;;;;;;2.93;2.73;;;;;;;20.48;53.21;98024.78;4962300;28;20228;-25
2023/05/04 01:48:34;;;;;;;2.90;2.70;;;;;;;20.47;53.48;98011.19;4985780;28;20203;-26
2023/05/04 01:51:01;;;;;;;3.33;2.87;;;;;;;20.47;53.36;98011.19;4975474;28;20252;-27
2023/05/04 01:53:27;;;;;;;2.80;2.60;;;;;;;20.48;53.42;98009.47;4976961;28;20204;-25
2023/05/04 01:55:54;;;;;;;3.00;2.80;;;;;;;20.48;52.97;98001.81;4973179;28;20742;-25
2023/05/04 01:58:20;;;;;;;3.23;2.97;;;;;;;20.47;53.29;98007.75;4975993;28;20263;-25
2023/05/04 02:00:47;;;;;;;2.97;2.77;;;;;;;20.48;53.39;98010.34;4973472;28;20310;-25
2023/05/04 02:03:13;;;;;;;3.10;2.90;;;;;;;20.48;53.55;98006.91;4981147;28;20250;-25
2023/05/04 02:05:40;;;;;;;2.97;2.77;;;;;;;20.49;53.15;98008.69;4971195;28;20231;-26
2023/05/04 02:08:07;;;;;;;2.83;2.63;;;;;;;20.48;53.65;98004.38;4967586;28;20196;-25
2023/05/04 02:10:33;;;;;;;3.20;2.90;;;;;;;20.47;53.24;98007.75;4967063;28;20658;-25
2023/05/04 02:13:00;;;;;;;2.77;2.57;;;;;;;20.47;53.34;98002.63;4966369;28;20207;-25
2023/05/04 02:15:27;;;;;;;3.20;3.00;;;;;;;20.47;53.07;98007.75;4967778;28;20281;-25
2023/05/04 02:17:54;;;;;;;2.83;2.63;;;;;;;20.47;53.34;98011.19;4957925;28;20236;-28
2023/05/04 02:20:20;;;;;;;2.90;2.70;;;;;;;20.46;52.92;98019.63;4973066;28;20607;-25
2023/05/04 02:22:47;;;;;;;3.10;2.73;;;;;;;20.45;53.20;98002.56;4976136;28;20203;-27
2023/05/04 02:25:13;;;;;;;3.23;3.03;;;;;;;20.46;53.82;98008.56;4977388;28;20750;-25
2023/05/04 02:27:40;;;;;;;3.10;2.90;;;;;;;20.45;53.18;98011.91;4974146;28;20252;-25
2023/05/04 02:30:08;;;;;;;3.37;3.07;;;;;;;20.45;53.42;98009.34;4972137;28;20201;-25
2023/05/04 02:32:35;;;;;;;3.57;3.27;;;;;;;20.44;52.99;98011.06;4979537;28;20203;-25
2023/05/04 02:35:02;;;;;;;3.10;2.90;;;;;;;20.44;53.17;98007.63;4963748;28;20262;-25
2023/05/04 02:37:28;;;;;;;3.50;3.20;;;;;;;20.43;52.77;98009.28;4973664;28;20211;-27
2023/05/04 02:39:55;;;;;;;3.00;2.80;;;;;;;20.42;53.44;98005.00;4975225;28;20255;-25
2023/05/04 02:42:21;;;;;;;2.90;2.70;;;;;;;20.43;53.28;98005.88;4974481;28;20479;-25
2023/05/04 02:44:48;;;;;;;3.27;2.93;;;;;;;20.43;54.06;98003.31;4967781;28;20257;-25
2023/05/04 02:47:14;;;;;;;2.87;2.67;;;;;;;20.43;53.34;98016.09;4972145;28;20200;-25
2023/05/04 02:49:41;;;;;;;2.90;2.70;;;;;;;20.43;53.43;98001.63;4973532;28;20218;-25
2023/05/04 02:52:08;;;;;;;3.30;3.00;;;;;;;20.42;53.53;98010.09;4970049;28;20200;-25
2023/05/04 02:54:34;;;;;;;3.10;2.90;;;;;;;20.38;53.61;97998.03;4978565;28;20211;-27
2023/05/04 02:57:01;;;;;;;2.90;2.70;;;;;;;20.43;53.75;98000.78;4974360;28;20254;-25
2023/05/04 02:59:27;;;;;;;3.30;3.00;;;;;;;20.43;53.19;97999.06;4973147;28;20223;-25
2023/05/04 03:01:54;;;;;;;3.70;3.10;;;;;;;20.44;53.29;98005.94;4969699;28;20227;-25
2023/05/04 03:04:21;;;;;;;3.50;3.20;;;;;;;20.45;53.73;98006.78;4969911;28;20262;-26
2023/05/04 03:06:47;;;;;;;2.73;2.53;;;;;;;20.46;53.48;98003.44;4970189;28;20230;-25
2023/05/04 03:09:14;;;;;;;2.97;2.77;;;;;;;20.44;53.22;98000.84;4967730;28;20197;-27
2023/05/04 03:11:40;;;;;;;3.20;3.00;;;;;;;20.47;53.55;98007.75;4965099;28;20298;-25
2023/05/04 03:14:07;;;;;;;3.17;2.97;;;;;;;20.18;53.49;97958.03;4965441;28;20208;-34
2023/05/04 03:16:33;;;;;;;3.67;3.17;;;;;;;20.47;53.40;98010.28;4957521;28;20263;-26
2023/05/04 03:19:00;;;;;;;3.13;2.83;;;;;;;20.47;53.28;98011.19;4968856;28;20572;-25
2023/05/04 03:21:27;;;;;;;2.97;2.77;;;;;;;20.48;53.07;98012.03;4966280;28;20252;-26
2023/05/04 03:23:53;;;;;;;2.97;2.77;;;;;;;20.48;53.40;98004.38;4971898;28;20204;-27
2023/05/04 03:26:20;;;;;;;3.20;2.97;;;;;;;20.49;53.83;98004.44;4973486;28;20258;-25
2023/05/04 03:28:46;;;;;;;3.27;2.97;;;;;;;20.50;53.37;98003.63;4961313;28;20687;-25
2023/05/04 03:31:13;;;;;;;3.03;2.83;;;;;;;20.50;53.57;98000.22;4970350;28;20231;-25
2023/05/04 03:33:40;;;;;;;3.03;2.83;;;;;;;20.51;53.43;97994.28;4973720;28;20207;-33
2023/05/04 03:36:08;;;;;;;2.90;2.70;;;;;;;20.52;53.47;97990.94;4963244;28;20230;-25
2023/05/04 03:38:34;;;;;;;3.23;2.97;;;;;;;20.53;53.16;97990.13;4979328;28;20561;-25
2023/05/04 03:41:01;;;;;;;2.97;2.77;;;;;;;20.53;53.42;97996.09;4973277;28;20223;-37
2023/05/04 03:43:27;;;;;;;2.90;2.70;;;;;;;20.53;53.49;97993.56;4967702;28;20290;-29
2023/05/04 03:45:54;;;;;;;2.80;2.60;;;;;;;20.54;53.58;97990.19;4969766;28;20234;-25
2023/05/04 03:48:21;;;;;;;3.20;2.90;;;;;;;20.52;54.00;97984.13;4967820;28;20199;-25
2023/05/04 03:50:47;;;;;;;2.70;2.50;;;;;;;20.55;52.89;97988.50;4965560;28;20199;-28
2023/05/04 03:53:14;;;;;;;3.27;3.00;;;;;;;20.55;53.65;97991.06;4968232;28;20254;-25
2023/05/04 03:55:40;;;;;;;2.90;2.70;;;;;;;20.55;53.64;97988.50;4965602;28;20223;-25
2023/05/04 03:58:07;;;;;;;2.97;2.77;;;;;;;20.54;53.29;97990.19;4969470;28;20242;-30
2023/05/04 04:00:34;;;;;;;2.80;2.60;;;;;;;20.55;53.51;97986.84;4969541;28;20302;-27
2023/05/04 04:03:00;;;;;;;3.07;2.87;;;;;;;20.55;53.67;97986.84;4967674;28;20204;-25
2023/05/04 04:05:27;;;;;;;2.70;2.50;;;;;;;20.55;53.31;97994.50;4966421;28;20322;-26
2023/05/04 04:07:54;;;;;;;2.87;2.60;;;;;;;20.54;53.14;98002.94;4968582;28;20266;-29
2023/05/04 04:10:21;;;;;;;3.10;2.90;;;;;;;20.54;53.51;97992.72;4968660;28;20315;-26
2023/05/04 04:12:48;;;;;;;3.07;2.80;;;;;;;20.55;53.71;97988.50;4966816;28;20200;-29
2023/05/04 04:15:15;;;;;;;3.03;2.73;;;;;;;20.54;53.46;97995.28;4963182;28;20243;-27
2023/05/04 04:17:41;;;;;;;2.77;2.57;;;;;;;20.55;54.03;97996.16;4961146;28;20271;-29
2023/05/04 04:20:09;;;;;;;3.10;2.80;;;;;;;20.54;53.40;97992.72;4965152;28;20228;-26
2023/05/04 04:22:35;;;;;;;2.70;2.50;;;;;;;20.54;53.52;97987.63;4964329;28;20204;-25
2023/05/04 04:25:02;;;;;;;2.90;2.70;;;;;;;20.54;53.58;97997.84;4969284;28;20223;-29
2023/05/04 04:27:28;;;;;;;2.90;2.70;;;;;;;19.72;53.03;97857.44;4968493;28;20218;-27
2023/05/04 04:29:55;;;;;;;2.90;2.70;;;;;;;20.54;53.48;98002.94;4960823;28;20212;-26
2023/05/04 04:32:22;;;;;;;2.80;2.60;;;;;;;20.34;53.29;97973.16;4959047;28;20286;-28
2023/05/04 04:34:48;;;;;;;2.70;2.50;;;;;;;20.54;53.73;98015.72;4966588;28;20220;-30
2023/05/04 04:37:15;;;;;;;3.10;2.80;;;;;;;20.55;53.50;98019.16;4966092;28;20235;-25
2023/05/04 04:39:42;;;;;;;2.97;2.77;;;;;;;20.55;53.58;98012.38;4969249;28;20602;-26
2023/05/04 04:42:08;;;;;;;3.03;2.80;;;;;;;20.54;53.07;98017.41;4969189;28;20211;-31
2023/05/04 04:44:35;;;;;;;3.07;2.87;;;;;;;20.55;53.20;98025.13;4965245;28;20287;-35
2023/05/04 04:47:01;;;;;;;3.20;2.60;;;;;;;20.52;52.71;98019.03;4966570;28;20556;-25
2023/05/04 04:49:28;;;;;;;2.80;2.60;;;;;;;20.53;52.93;98013.09;4969622;28;20207;-25
2023/05/04 04:51:55;;;;;;;2.90;2.70;;;;;;;20.55;53.07;98025.13;4968791;28;20207;-36
2023/05/04 04:54:22;;;;;;;3.13;2.90;;;;;;;20.41;53.10;97999.84;4969895;28;20616;-29
2023/05/04 04:56:48;;;;;;;2.90;2.70;;;;;;;20.53;52.90;98026.75;4966106;28;20238;-26
2023/05/04 04:59:16;;;;;;;2.97;2.77;;;;;;;20.55;53.12;98031.91;4968862;28;20216;-25
2023/05/04 05:01:42;;;;;;;2.80;2.60;;;;;;;20.55;53.17;98029.38;4968848;28;20702;-30
2023/05/04 05:04:09;;;;;;;2.90;2.70;;;;;;;20.54;52.64;98025.94;4969547;28;20282;-25
2023/05/04 05:06:35;;;;;;;3.37;2.57;;;;;;;20.55;53.46;98026.81;4968791;28;20236;-25
2023/05/04 05:09:02;;;;;;;3.10;2.90;;;;;;;20.53;53.07;98024.19;4967985;28;20636;-29
2023/05/04 05:11:29;;;;;;;2.90;2.70;;;;;;;20.53;52.73;98029.31;4969805;28;20203;-26
2023/05/04 05:13:55;;;;;;;3.00;2.80;;;;;;;20.55;52.87;98031.91;4968729;28;20805;-25
2023/05/04 05:16:22;;;;;;;3.10;2.90;;;;;;;20.47;52.85;98023.06;4962819;28;20728;-27
2023/05/04 05:18:49;;;;;;;3.00;2.80;;;;;;;20.56;53.49;98033.66;4973197;28;20286;-29
2023/05/04 05:21:15;;;;;;;3.30;3.10;;;;;;;20.55;53.37;98030.25;4972205;28;20278;-34
2023/05/04 05:23:42;;;;;;;2.83;2.63;;;;;;;20.56;53.38;98031.97;4965564;28;20208;-25
2023/05/04 05:26:08;;;;;;;3.03;2.83;;;;;;;20.56;53.14;98031.09;4967060;28;20366;-25
2023/05/04 05:28:36;;;;;;;3.17;2.90;;;;;;;20.56;53.15;98018.31;4965970;28;20209;-35
2023/05/04 05:31:02;;;;;;;3.00;2.80;;;;;;;20.57;53.38;98030.31;4958224;28;20196;-25
2023/05/04 05:33:29;;;;;;;3.00;2.77;;;;;;;20.57;53.23;98020.94;4966205;28;20409;-25
2023/05/04 05:35:55;;;;;;;3.40;3.10;;;;;;;20.58;52.79;98016.72;4985911;23;20234;-28
2023/05/04 05:38:22;;;;;;;3.87;3.57;;;;;;;20.57;52.16;98017.53;4985035;28;20207;-29
2023/05/04 05:40:48;;;;;;;5.00;4.50;;;;;;;20.56;51.44;98015.78;4990173;28;20363;-28
2023/05/04 05:43:15;;;;;;;7.27;4.20;;;;;;;20.55;51.22;98020.03;4985302;28;20315;-28
2023/05/04 05:45:42;;;;;;;6.27;5.37;;;;;;;20.54;50.70;98025.94;4993738;28;20262;-30
2023/05/04 05:48:08;;;;;;;8.00;5.60;;;;;;;20.54;50.24;98031.03;4984952;28;20206;-28
2023/05/04 05:50:35;;;;;;;8.60;5.60;;;;;;;20.53;49.81;98033.53;4980540;28;20199;-29
2023/05/04 05:53:01;;;;;;;7.00;5.50;;;;;;;20.50;49.19;98029.19;4984396;28;20689;-31
2023/05/04 05:55:28;;;;;;;8.87;6.47;;;;;;;20.50;48.88;98026.63;4983875;28;20756;-29
2023/05/04 05:57:54;;;;;;;8.53;6.07;;;;;;;20.49;49.19;98016.34;4988619;28;20198;-28
2023/05/04 06:00:21;;;;;;;14.23;6.97;;;;;;;20.49;48.99;98029.13;4985208;28;20268;-28
2023/05/04 06:02:48;;;;;;;11.40;6.23;;;;;;;20.47;49.34;98023.94;4989426;28;20219;-27
2023/05/04 06:05:14;;;;;;;7.20;6.30;;;;;;;20.49;49.05;98024.00;4980634;28;21605;-29
2023/05/04 06:07:41;;;;;;;6.70;5.63;;;;;;;20.37;49.47;97995.41;4983367;28;20331;-28
2023/05/04 06:10:08;;;;;;;6.23;5.63;;;;;;;20.49;49.55;98019.75;4990019;28;20203;-31
2023/05/04 06:12:35;;;;;;;7.10;5.70;;;;;;;20.48;50.25;98022.25;4984641;28;20203;-29
2023/05/04 06:15:01;;;;;;;6.50;5.30;;;;;;;20.47;50.54;98016.28;4989784;28;20285;-29
2023/05/04 06:17:28;;;;;;;12.53;5.53;;;;;;;20.50;50.42;98029.19;4984027;28;20224;-29
2023/05/04 06:19:55;;;;;;;6.47;5.67;;;;;;;20.49;50.26;98024.00;4986196;28;20203;-29
2023/05/04 06:22:21;;;;;;;9.57;6.27;;;;;;;20.48;49.28;98018.00;4982855;28;20241;-28
2023/05/04 06:24:48;;;;;;;9.67;6.10;;;;;;;20.47;48.06;98013.72;4988762;28;20294;-29
2023/05/04 06:27:15;;;;;;;8.37;6.47;;;;;;;20.48;48.25;98012.03;4987885;28;20768;-28
2023/05/04 06:29:41;;;;;;;9.60;6.20;;;;;;;20.46;48.36;98014.50;4987035;28;20437;-29
2023/05/04 06:32:11;;;;;;;10.30;6.27;;;;;;;20.46;49.16;98009.41;4991034;28;20286;-28
2023/05/04 06:34:38;;;;;;;7.17;5.60;;;;;;;20.46;49.43;98009.41;4984719;28;20391;-28
2023/05/04 06:37:04;;;;;;;9.40;5.87;;;;;;;20.46;49.53;98006.84;4983439;28;20306;-29
2023/05/04 06:39:31;;;;;;;10.97;6.30;;;;;;;20.47;49.78;98007.75;4987471;28;20674;-27
2023/05/04 06:41:58;;;;;;;8.93;5.77;;;;;;;20.46;50.10;98006.00;4987178;28;20218;-28
2023/05/04 06:44:25;;;;;;;7.73;5.90;;;;;;;20.48;50.07;98006.91;4984697;28;20195;-28
2023/05/04 06:46:51;;;;;;;9.03;5.30;;;;;;;20.49;50.78;98006.13;4983674;28;20272;-27
2023/05/04 06:49:19;;;;;;;6.93;5.27;;;;;;;20.49;50.55;98013.78;4979677;28;20304;-29
2023/05/04 06:51:45;;;;;;;6.67;4.63;;;;;;;20.49;50.32;98012.09;4984236;28;20299;-29
2023/05/04 06:54:12;;;;;;;5.50;4.67;;;;;;;20.50;51.04;98015.53;4989848;28;20210;-29
2023/05/04 06:56:39;;;;;;;6.47;5.00;;;;;;;20.50;50.68;98015.53;4987593;28;20231;-28
2023/05/04 06:59:07;;;;;;;6.10;4.70;;;;;;;20.50;51.08;98008.75;4992681;28;20752;-29
2023/05/04 07:01:33;;;;;;;5.27;4.70;;;;;;;20.50;51.00;98011.31;4985907;28;20289;-28
2023/05/04 07:04:00;;;;;;;4.67;4.20;;;;;;;20.52;51.04;98008.81;4988035;28;20693;-29
2023/05/04 07:06:28;;;;;;;7.17;4.70;;;;;;;20.52;51.12;98004.56;4982481;28;20729;-29
2023/05/04 07:08:55;;;;;;;5.77;4.30;;;;;;;20.53;51.63;98008.00;4987411;28;20211;-28
2023/05/04 07:11:22;;;;;;;4.80;4.30;;;;;;;20.47;51.57;97989.88;4979857;28;20587;-28
2023/05/04 07:13:49;;;;;;;6.17;4.20;;;;;;;20.54;52.01;98007.19;4986355;28;20261;-28
2023/05/04 07:16:15;;;;;;;5.87;4.27;;;;;;;20.54;51.88;98005.50;4982815;28;20227;-29
2023/05/04 07:18:42;;;;;;;4.40;4.00;;;;;;;20.55;51.53;98006.38;4989473;28;20309;-29
2023/05/04 07:21:11;;;;;;;7.57;4.17;;;;;;;20.56;51.85;98009.00;4981753;28;20227;-27
2023/05/04 07:23:54;;;;;;;6.23;4.20;;;;;;;20.57;52.15;98008.19;4987751;28;20508;-29
2023/05/04 07:26:21;;;;;;;4.90;4.47;;;;;;;20.56;51.94;97998.78;4988520;28;20246;-28
2023/05/04 07:28:48;;;;;;;4.30;3.90;;;;;;;20.56;51.90;97998.78;4985567;28;20239;-29
2023/05/04 07:31:14;;;;;;;5.10;4.20;;;;;;;20.59;52.07;98000.56;5003333;28;20214;-28
2023/05/04 07:33:41;;;;;;;5.87;3.93;;;;;;;20.58;51.97;97999.72;4985603;28;20241;-27
2023/05/04 07:36:08;;;;;;;4.57;4.17;;;;;;;20.51;51.49;97977.28;4987779;28;20248;-29
2023/05/04 07:38:35;;;;;;;7.07;4.70;;;;;;;20.59;51.14;97998.91;4990919;28;20199;-29
2023/05/04 07:41:01;;;;;;;8.67;4.63;;;;;;;20.59;50.96;98001.47;4990273;28;20214;-29
2023/05/04 07:43:28;;;;;;;6.20;4.47;;;;;;;20.59;51.38;97985.25;4986764;28;20203;-29
2023/05/04 07:45:54;;;;;;;5.57;4.77;;;;;;;20.59;50.49;97987.81;4989375;28;20276;-28
2023/05/04 07:48:21;;;;;;;7.00;5.00;;;;;;;20.59;50.35;97986.13;4991193;28;20199;-28
2023/05/04 07:50:51;;;;;;;8.43;5.70;;;;;;;20.59;50.81;97982.69;4992722;28;20625;-28
2023/05/04 07:53:19;;;;;;;5.13;4.63;;;;;;;20.58;50.69;97992.06;4989252;28;20281;-29
2023/05/04 07:55:46;;;;;;;11.43;4.73;;;;;;;20.60;50.67;97992.13;4991520;28;20617;-29
2023/05/04 07:58:14;;;;;;;7.80;5.53;;;;;;;20.60;50.97;97982.75;4986593;28;20200;-29
2023/05/04 08:00:41;;;;;;;5.90;4.97;;;;;;;20.59;50.81;97985.25;4992580;28;20792;-29
2023/05/04 08:03:07;;;;;;;7.67;4.80;;;;;;;20.59;50.63;97978.47;4990624;28;20254;-29
2023/05/04 08:05:34;;;;;;;5.07;4.33;;;;;;;20.60;51.36;97985.31;4992268;28;20262;-28
2023/05/04 08:08:00;;;;;;;6.23;4.60;;;;;;;20.61;51.43;97978.53;4991985;28;20203;-29
2023/05/04 08:10:28;;;;;;;4.77;4.00;;;;;;;20.62;51.21;97981.16;4992797;28;20721;-29
2023/05/04 08:12:54;;;;;;;5.13;4.27;;;;;;;20.61;51.37;97976.88;4991155;28;20576;-28
2023/05/04 08:15:21;;;;;;;4.37;3.97;;;;;;;20.61;51.69;97976.88;4992437;28;20258;-29
2023/05/04 08:17:47;;;;;;;4.90;4.40;;;;;;;20.63;51.35;97976.94;4992348;28;20292;-29
2023/05/04 08:20:15;;;;;;;4.80;4.10;;;;;;;20.61;51.78;97976.88;4986795;28;20218;-29
2023/05/04 08:22:42;;;;;;;4.73;4.23;;;;;;;20.62;51.68;97972.59;4992336;28;20733;-29
2023/05/04 08:25:08;;;;;;;5.20;4.40;;;;;;;20.54;51.82;97962.09;4992095;28;20199;-29
2023/05/04 08:27:35;;;;;;;4.60;4.10;;;;;;;20.62;51.86;97981.16;4991877;28;20203;-29
2023/05/04 08:30:02;;;;;;;5.13;3.90;;;;;;;20.58;51.87;97968.19;4991994;28;20322;-29
2023/05/04 08:32:28;;;;;;;4.37;3.83;;;;;;;20.62;51.94;97980.28;4992411;28;20234;-29
2023/05/04 08:34:58;;;;;;;4.10;3.70;;;;;;;20.57;51.77;97971.56;4996938;28;20635;-29
2023/05/04 08:37:25;;;;;;;6.93;3.93;;;;;;;20.63;51.95;97982.03;4999161;28;20226;-29
2023/05/04 08:39:51;;;;;;;4.63;4.03;;;;;;;20.62;52.06;97975.16;4996687;28;20277;-29
2023/05/04 08:42:31;;;;;;;4.03;3.60;;;;;;;20.63;51.92;97980.34;4990676;28;20223;-28
2023/05/04 08:44:58;;;;;;;4.43;4.00;;;;;;;20.62;52.18;97983.72;4979782;28;20662;-28
2023/05/04 08:47:25;;;;;;;4.20;3.80;;;;;;;20.61;52.05;97976.88;4996259;28;20230;-29
2023/05/04 08:49:53;;;;;;;4.40;4.00;;;;;;;20.63;52.38;97980.34;4994508;28;20206;-29
2023/05/04 08:52:21;;;;;;;5.37;3.87;;;;;;;20.62;52.25;97972.59;4985841;28;20205;-29
2023/05/04 08:54:47;;;;;;;4.40;3.63;;;;;;;20.59;52.36;97975.91;4999175;28;20202;-29
2023/05/04 08:57:14;;;;;;;4.13;3.70;;;;;;;20.58;52.19;97968.19;4990486;28;20249;-28
2023/05/04 08:59:41;;;;;;;5.23;3.70;;;;;;;20.63;52.84;97974.38;4981137;28;20203;-29
2023/05/04 09:02:08;;;;;;;3.90;3.50;;;;;;;20.64;52.45;97981.22;4994672;28;20218;-29
2023/05/04 09:04:35;;;;;;;4.73;3.63;;;;;;;20.62;52.48;97973.50;4975001;28;20215;-29
2023/05/04 09:07:02;;;;;;;3.60;3.30;;;;;;;20.64;52.38;97965.91;4976361;28;20309;-29
2023/05/04 09:09:30;;;;;;;4.80;3.90;;;;;;;20.64;52.40;97978.66;4991997;28;20400;-29
2023/05/04 09:11:57;;;;;;;4.40;4.00;;;;;;;20.66;52.46;97971.94;4998868;28;20246;-28
2023/05/04 09:14:30;;;;;;;3.57;3.27;;;;;;;20.64;52.48;97971.00;4995817;28;20203;-29
2023/05/04 09:16:57;;;;;;;3.67;3.37;;;;;;;20.62;52.90;97976.03;4992164;28;20223;-28
2023/05/04 09:19:32;;;;;;;3.53;3.23;;;;;;;20.56;52.93;97952.81;4989013;28;20619;-29
2023/05/04 09:21:59;;;;;;;4.53;3.37;;;;;;;20.65;52.73;97965.06;4997971;28;20736;-29
2023/05/04 09:24:27;;;;;;;4.33;3.40;;;;;;;20.65;52.75;97970.19;5001236;28;20199;-29
2023/05/04 09:26:53;;;;;;;4.77;3.30;;;;;;;20.65;52.59;97965.94;4991288;28;20254;-28
2023/05/04 09:29:22;;;;;;;4.20;3.80;;;;;;;20.65;52.65;97959.97;4998094;28;20206;-29
2023/05/04 09:31:49;;;;;;;4.90;3.60;;;;;;;20.63;52.79;97951.38;4991721;28;20258;-28
2023/05/04 09:34:19;;;;;;;4.10;3.33;;;;;;;20.62;52.88;97941.97;4991210;28;20203;-29
2023/05/04 09:36:57;;;;;;;3.80;3.50;;;;;;;20.61;52.71;97947.91;4994076;28;20276;-29
2023/05/04 09:39:24;;;;;;;4.00;3.60;;;;;;;20.58;52.51;97943.56;4980473;28;20203;-29
2023/05/04 09:41:50;;;;;;;3.73;3.40;;;;;;;20.66;52.92;97947.25;4979343;28;20302;-29
2023/05/04 09:44:18;;;;;;;4.33;3.33;;;;;;;20.66;52.79;97948.97;4991384;28;20230;-29
2023/05/04 09:46:57;;;;;;;3.30;3.00;;;;;;;20.65;52.78;97950.63;4999018;28;20227;-27
2023/05/04 09:49:34;;;;;;;3.30;3.10;;;;;;;20.61;52.80;97940.22;4988856;28;20226;-29
2023/05/04 09:52:01;;;;;;;4.07;3.50;;;;;;;20.66;52.92;97954.06;4999925;28;20199;-29
2023/05/04 09:54:31;;;;;;;3.57;3.30;;;;;;;20.66;53.11;97947.25;4991441;28;20613;-29
2023/05/04 09:57:03;;;;;;;3.70;3.33;;;;;;;20.60;52.98;97930.84;4990997;28;20226;-29
2023/05/04 09:59:33;;;;;;;3.20;2.90;;;;;;;20.66;52.94;97941.28;5009620;28;20634;-29
2023/05/04 10:01:59;;;;;;;3.50;3.20;;;;;;;20.65;52.94;97930.19;4990110;28;20223;-29
2023/05/04 10:04:43;;;;;;;3.83;3.47;;;;;;;20.63;52.67;97931.81;5002038;28;20596;-29
2023/05/04 10:07:10;;;;;;;3.40;3.10;;;;;;;20.66;52.78;97931.09;5014699;28;20309;-29
2023/05/04 10:09:36;;;;;;;3.47;3.17;;;;;;;20.62;53.08;97922.41;4982939;28;20655;-29
2023/05/04 10:12:04;;;;;;;3.70;3.40;;;;;;;20.66;52.90;97926.81;4977615;28;20231;-29
2023/05/04 10:14:33;;;;;;;3.60;3.30;;;;;;;20.66;53.05;97925.97;4995526;28;20611;-28
2023/05/04 10:17:11;;;;;;;3.50;3.20;;;;;;;20.66;52.94;97916.59;4994337;28;20234;-29
2023/05/04 10:19:57;;;;;;;3.33;3.07;;;;;;;20.66;53.02;97919.16;4994380;28;20205;-29
2023/05/04 10:22:35;;;;;;;3.37;3.10;;;;;;;20.67;53.10;97914.94;4983591;28;20223;-29
2023/05/04 10:25:06;;;;;;;3.53;3.20;;;;;;;20.66;52.97;97910.66;5001710;28;20202;-27
2023/05/04 10:27:53;;;;;;;4.43;3.10;;;;;;;20.67;53.23;97917.50;4987385;28;20561;-29
2023/05/04 10:30:20;;;;;;;3.37;3.07;;;;;;;20.68;52.75;97906.44;4971887;28;20195;-29
2023/05/04 10:32:54;;;;;;;3.13;2.83;;;;;;;20.66;53.21;97914.06;4987690;28;20210;-29
2023/05/04 10:35:20;;;;;;;3.73;3.43;;;;;;;20.67;53.06;97900.50;4987604;28;20207;-29
2023/05/04 10:37:53;;;;;;;3.33;3.03;;;;;;;20.65;53.22;97903.78;4985126;28;20637;-29
2023/05/04 10:40:40;;;;;;;3.47;3.17;;;;;;;20.66;53.11;97898.72;4986449;28;20203;-29
2023/05/04 10:43:07;;;;;;;3.43;3.13;;;;;;;20.67;53.05;97895.38;4998689;28;20230;-28
2023/05/04 10:45:37;;;;;;;3.40;3.10;;;;;;;20.66;53.13;97890.22;4991560;28;20223;-29
2023/05/04 10:48:04;;;;;;;3.10;2.67;;;;;;;20.66;53.24;97885.97;4997890;28;20586;-29
2023/05/04 10:50:42;;;;;;;3.30;3.00;;;;;;;20.66;53.24;97885.97;4995608;28;20553;-28
2023/05/04 10:53:09;;;;;;;2.97;2.77;;;;;;;20.67;53.74;97892.84;4993590;28;20199;-29
2023/05/04 10:55:40;;;;;;;3.67;3.13;;;;;;;20.67;53.12;97877.50;4994234;28;20227;-28
2023/05/04 10:58:07;;;;;;;3.30;3.00;;;;;;;20.63;53.32;97873.06;4997730;28;20480;-29
2023/05/04 11:00:37;;;;;;;3.23;3.03;;;;;;;20.67;53.38;97874.94;4994875;28;20257;-28
2023/05/04 11:03:04;;;;;;;3.20;2.90;;;;;;;20.68;53.34;97860.47;4997051;28;20753;-29
2023/05/04 11:05:44;;;;;;;3.20;2.90;;;;;;;20.65;53.15;97847.59;4994486;28;20306;-28
2023/05/04 11:08:18;;;;;;;3.10;2.80;;;;;;;20.68;53.29;97852.81;4992555;28;20281;-29
2023/05/04 11:10:46;;;;;;;3.43;3.10;;;;;;;20.68;53.34;97851.16;4995639;28;20261;-29
2023/05/04 11:13:12;;;;;;;3.03;2.73;;;;;;;20.68;53.33;97846.03;4985587;28;20204;-28
2023/05/04 11:15:46;;;;;;;3.03;2.70;;;;;;;20.68;53.17;97848.59;4991983;28;20227;-29
2023/05/04 11:18:13;;;;;;;3.00;2.70;;;;;;;20.65;53.24;97845.03;4994332;28;20195;-32
2023/05/04 11:20:41;;;;;;;3.00;2.80;;;;;;;20.69;52.92;97842.66;4993730;28;20199;-29
2023/05/04 11:23:09;;;;;;;2.40;2.30;;;;;;;20.61;53.41;97825.31;4985427;28;20273;-29
2023/05/04 11:25:36;;;;;;;3.07;2.87;;;;;;;20.70;53.25;97841.00;4991549;28;20227;-29
2023/05/04 11:28:03;;;;;;;2.93;2.70;;;;;;;20.69;53.39;97844.38;4994375;28;20206;-29
2023/05/04 11:30:32;;;;;;;2.87;2.67;;;;;;;20.70;53.49;97843.53;4994770;28;20665;-29
2023/05/04 11:32:59;;;;;;;3.20;3.00;;;;;;;20.69;53.02;97837.56;4993220;28;20655;-29
2023/05/04 11:35:26;;;;;;;4.07;3.10;;;;;;;20.69;53.24;97832.44;4993328;28;20195;-29